createdAt,value
2018-12-09T00:00:22.168Z,0.70
2018-12-09T00:02:49.740Z,0.70
2018-12-09T00:05:17.326Z,1.65
2018-12-09T00:07:44.889Z,1.80
2018-12-09T00:10:12.569Z,1.10
2018-12-09T00:12:40.141Z,0.90
2018-12-09T00:15:07.795Z,0.70
2018-12-09T00:17:35.333Z,0.80
2018-12-09T00:20:03.071Z,0.90
2018-12-09T00:22:30.681Z,0.98
2018-12-09T00:24:58.222Z,1.12
2018-12-09T00:27:25.890Z,1.20
2018-12-09T00:29:53.571Z,0.80
2018-12-09T00:32:21.132Z,1.45
2018-12-09T00:34:48.849Z,0.75
2018-12-09T00:37:16.378Z,0.88
2018-12-09T00:39:43.921Z,0.70
2018-12-09T00:42:11.444Z,1.10
2018-12-09T00:44:39.093Z,0.60
2018-12-09T00:47:06.666Z,0.98
2018-12-09T00:49:34.282Z,0.70
2018-12-09T00:52:01.862Z,1.65
2018-12-09T00:54:29.447Z,1.80
2018-12-09T00:56:57.058Z,0.60
2018-12-09T00:59:24.632Z,1.42
2018-12-09T01:01:52.199Z,0.70
2018-12-09T01:04:19.779Z,1.12
2018-12-09T01:06:47.301Z,0.90
2018-12-09T01:09:14.891Z,0.60
2018-12-09T01:11:42.461Z,1.05
2018-12-09T01:14:10.053Z,2.02
2018-12-09T01:16:37.638Z,0.78
2018-12-09T01:19:05.318Z,0.68
2018-12-09T01:21:32.886Z,1.62
2018-12-09T01:24:00.410Z,0.80
2018-12-09T01:26:28.321Z,2.27
2018-12-09T01:28:55.851Z,1.22
2018-12-09T01:31:23.456Z,0.78
2018-12-09T01:33:50.982Z,3.25
2018-12-09T01:36:18.622Z,0.80
2018-12-09T01:38:46.145Z,1.75
2018-12-09T01:41:13.779Z,0.60
2018-12-09T01:43:41.341Z,0.60
2018-12-09T01:46:08.930Z,0.70
2018-12-09T01:48:36.485Z,1.10
2018-12-09T01:51:04.045Z,0.78
2018-12-09T01:53:43.606Z,0.80
2018-12-09T01:56:11.192Z,3.50
2018-12-09T01:58:38.757Z,0.80
2018-12-09T02:01:06.334Z,0.60
2018-12-09T02:03:33.879Z,0.88
2018-12-09T02:06:01.482Z,0.70
2018-12-09T02:08:29.152Z,2.25
2018-12-09T02:10:57.135Z,0.70
2018-12-09T02:13:24.705Z,0.80
2018-12-09T02:15:52.411Z,0.60
2018-12-09T02:18:19.949Z,0.93
2018-12-09T02:20:47.526Z,0.80
2018-12-09T02:23:15.486Z,0.60
2018-12-09T02:25:43.037Z,0.70
2018-12-09T02:28:10.566Z,0.60
2018-12-09T02:30:38.109Z,0.60
2018-12-09T02:33:05.898Z,0.70
2018-12-09T02:35:37.327Z,0.70
2018-12-09T02:38:04.900Z,0.70
2018-12-09T02:40:32.458Z,0.70
2018-12-09T02:42:59.989Z,1.20
2018-12-09T02:45:27.762Z,0.75
2018-12-09T02:47:55.290Z,0.70
2018-12-09T02:50:22.841Z,2.98
2018-12-09T02:52:50.373Z,0.62
2018-12-09T02:55:17.937Z,0.95
2018-12-09T02:57:45.599Z,1.17
2018-12-09T03:00:14.502Z,0.60
2018-12-09T03:02:42.089Z,2.55
2018-12-09T03:05:09.678Z,1.45
2018-12-09T03:07:37.254Z,0.80
2018-12-09T03:10:05.706Z,2.08
2018-12-09T03:12:33.241Z,1.45
2018-12-09T03:15:00.830Z,2.17
2018-12-09T03:17:28.353Z,3.25
2018-12-09T03:19:55.905Z,2.35
2018-12-09T03:22:23.435Z,2.87
2018-12-09T03:24:51.062Z,0.80
2018-12-09T03:27:18.613Z,0.80
2018-12-09T03:29:46.211Z,2.05
2018-12-09T03:32:13.786Z,1.07
2018-12-09T03:34:41.492Z,2.87
2018-12-09T03:37:09.129Z,1.25
2018-12-09T03:39:36.666Z,1.00
2018-12-09T03:42:04.300Z,0.70
2018-12-09T03:44:31.840Z,4.42
2018-12-09T03:46:59.398Z,7.70
2018-12-09T03:49:26.935Z,2.22
2018-12-09T03:51:54.487Z,2.33
2018-12-09T03:54:22.025Z,3.27
2018-12-09T03:56:49.620Z,5.20
2018-12-09T03:59:17.163Z,5.42
2018-12-09T04:01:44.718Z,7.65
2018-12-09T04:04:12.427Z,2.65
2018-12-09T04:06:40.018Z,7.03
2018-12-09T04:09:07.603Z,7.03
2018-12-09T04:11:35.243Z,7.30
2018-12-09T04:14:02.815Z,7.35
2018-12-09T04:16:30.365Z,9.70
2018-12-09T04:18:57.911Z,7.25
2018-12-09T04:21:25.482Z,8.08
2018-12-09T04:23:53.006Z,3.08
2018-12-09T04:26:20.563Z,6.12
2018-12-09T04:28:48.089Z,8.58
2018-12-09T04:31:15.644Z,3.42
2018-12-09T04:33:43.179Z,1.82
2018-12-09T04:36:10.730Z,6.37
2018-12-09T04:38:38.259Z,3.92
2018-12-09T04:41:05.818Z,6.20
2018-12-09T04:43:33.390Z,1.47
2018-12-09T04:46:01.940Z,3.98
2018-12-09T04:48:29.471Z,5.90
2018-12-09T04:50:57.026Z,7.37
2018-12-09T04:53:24.554Z,3.85
2018-12-09T04:55:52.119Z,6.20
2018-12-09T04:58:19.703Z,3.55
2018-12-09T05:00:54.813Z,1.77
2018-12-09T05:03:22.832Z,1.17
2018-12-09T05:05:50.592Z,1.75
2018-12-09T05:08:18.243Z,1.20
2018-12-09T05:10:45.784Z,2.75
2018-12-09T05:13:13.353Z,2.08
2018-12-09T05:15:40.878Z,2.98
2018-12-09T05:18:08.435Z,3.55
2018-12-09T05:20:36.145Z,2.67
2018-12-09T05:23:03.759Z,1.35
2018-12-09T05:25:31.326Z,1.60
2018-12-09T05:27:58.893Z,4.92
2018-12-09T05:30:26.571Z,3.92
2018-12-09T05:32:54.130Z,1.60
2018-12-09T05:35:22.112Z,3.40
2018-12-09T05:37:49.693Z,2.47
2018-12-09T05:40:17.222Z,8.20
2018-12-09T05:42:44.773Z,4.65
2018-12-09T05:45:12.437Z,1.92
2018-12-09T05:47:40.330Z,1.45
2018-12-09T05:50:07.941Z,7.05
2018-12-09T05:52:35.496Z,1.20
2018-12-09T05:55:03.469Z,1.17
2018-12-09T05:57:31.034Z,4.50
2018-12-09T05:59:58.991Z,4.25
2018-12-09T06:02:38.606Z,3.83
2018-12-09T06:05:06.311Z,2.55
2018-12-09T06:07:33.877Z,5.53
2018-12-09T06:10:01.415Z,1.60
2018-12-09T06:12:29.022Z,3.52
2018-12-09T06:14:56.693Z,4.95
2018-12-09T06:17:24.250Z,2.87
2018-12-09T06:19:51.971Z,2.17
2018-12-09T06:22:19.582Z,5.95
2018-12-09T06:24:47.637Z,1.65
2018-12-09T06:27:15.179Z,2.95
2018-12-09T06:29:42.712Z,3.22
2018-12-09T06:32:10.266Z,1.60
2018-12-09T06:34:37.793Z,2.33
2018-12-09T06:37:05.428Z,5.70
2018-12-09T06:39:33.007Z,2.33
2018-12-09T06:42:00.697Z,2.37
2018-12-09T06:44:28.405Z,6.47
2018-12-09T06:46:55.954Z,5.37
2018-12-09T06:49:23.488Z,2.85
2018-12-09T06:51:51.035Z,2.70
2018-12-09T06:54:18.577Z,1.95
2018-12-09T06:56:46.143Z,6.20
2018-12-09T06:59:13.801Z,1.47
2018-12-09T07:01:41.765Z,2.67
2018-12-09T07:04:09.302Z,2.60
2018-12-09T07:06:36.835Z,4.85
2018-12-09T07:09:05.202Z,4.05
2018-12-09T07:11:32.738Z,3.05
2018-12-09T07:14:00.297Z,3.72
2018-12-09T07:16:28.182Z,4.55
2018-12-09T07:18:55.754Z,3.00
2018-12-09T07:21:23.406Z,9.85
2018-12-09T07:23:50.982Z,9.15
2018-12-09T07:26:18.541Z,10.53
2018-12-09T07:28:46.122Z,3.80
2018-12-09T07:31:13.761Z,10.25
2018-12-09T07:33:41.371Z,11.53
2018-12-09T07:36:08.942Z,9.48
2018-12-09T07:38:36.503Z,11.53
2018-12-09T07:41:04.494Z,11.22
2018-12-09T07:43:32.065Z,10.23
2018-12-09T07:45:59.738Z,11.80
2018-12-09T07:48:27.311Z,4.83
2018-12-09T07:50:54.890Z,7.90
2018-12-09T07:53:22.939Z,14.15
2018-12-09T07:55:50.474Z,9.13
2018-12-09T07:58:18.102Z,7.30
2018-12-09T08:00:45.631Z,5.70
2018-12-09T08:03:13.243Z,5.28
2018-12-09T08:05:40.839Z,6.42
2018-12-09T08:08:08.407Z,6.60
2018-12-09T08:10:35.977Z,7.30
2018-12-09T08:13:03.546Z,5.47
2018-12-09T08:15:31.070Z,4.03
2018-12-09T08:17:58.613Z,7.30
2018-12-09T08:20:26.143Z,7.40
2018-12-09T08:22:53.696Z,15.53
2018-12-09T08:25:21.230Z,10.32
2018-12-09T08:27:48.853Z,7.28
2018-12-09T08:30:16.465Z,5.95
2018-12-09T08:32:44.012Z,9.13
2018-12-09T08:35:11.597Z,6.62
2018-12-09T08:37:39.150Z,8.35
2018-12-09T08:40:06.850Z,4.00
2018-12-09T08:42:34.418Z,3.58
2018-12-09T08:45:01.991Z,4.58
2018-12-09T08:47:29.567Z,2.45
2018-12-09T08:49:57.133Z,5.25
2018-12-09T08:52:24.710Z,7.10
2018-12-09T08:54:52.294Z,12.95
2018-12-09T08:57:19.850Z,5.35
2018-12-09T08:59:47.398Z,3.65
2018-12-09T09:02:14.935Z,4.60
2018-12-09T09:04:42.571Z,4.20
2018-12-09T09:07:10.094Z,5.17
2018-12-09T09:09:37.718Z,3.77
2018-12-09T09:12:05.286Z,5.03
2018-12-09T09:14:32.830Z,7.22
2018-12-09T09:17:00.429Z,5.08
2018-12-09T09:19:28.588Z,7.25
2018-12-09T09:21:56.366Z,2.27
2018-12-09T09:24:24.113Z,3.30
2018-12-09T09:26:51.740Z,4.35
2018-12-09T09:29:19.288Z,1.52
2018-12-09T09:31:46.885Z,3.10
2018-12-09T09:34:14.458Z,2.77
2018-12-09T09:36:41.990Z,4.05
2018-12-09T09:39:09.580Z,3.15
2018-12-09T09:41:37.173Z,5.58
2018-12-09T09:44:04.753Z,5.87
2018-12-09T09:46:32.330Z,3.10
2018-12-09T09:48:59.898Z,1.90
2018-12-09T09:51:27.476Z,1.15
2018-12-09T09:53:55.021Z,1.27
2018-12-09T09:56:22.734Z,1.87
2018-12-09T09:58:50.283Z,2.37
2018-12-09T10:01:17.869Z,2.35
2018-12-09T10:03:45.417Z,3.17
2018-12-09T10:06:13.025Z,4.40
2018-12-09T10:08:40.614Z,3.67
2018-12-09T10:11:08.142Z,3.47
2018-12-09T10:13:35.687Z,1.20
2018-12-09T10:16:03.218Z,3.00
2018-12-09T10:18:30.769Z,1.15
2018-12-09T10:20:58.295Z,1.82
2018-12-09T10:23:25.872Z,2.55
2018-12-09T10:25:53.628Z,2.98
2018-12-09T10:28:22.303Z,4.92
2018-12-09T10:30:49.926Z,1.90
2018-12-09T10:33:17.535Z,1.07
2018-12-09T10:35:45.101Z,1.10
2018-12-09T10:38:12.670Z,0.85
2018-12-09T10:40:40.255Z,2.67
2018-12-09T10:43:07.827Z,5.53
2018-12-09T10:45:35.414Z,1.35
2018-12-09T10:48:02.938Z,1.72
2018-12-09T10:50:30.522Z,1.12
2018-12-09T10:52:58.109Z,1.42
2018-12-09T10:55:25.681Z,2.75
2018-12-09T10:57:53.218Z,1.77
2018-12-09T11:03:19.066Z,1.87
2018-12-09T11:05:46.613Z,2.95
2018-12-09T11:08:14.224Z,1.55
2018-12-09T11:10:41.912Z,2.55
2018-12-09T11:13:09.442Z,2.22
2018-12-09T11:15:36.996Z,2.37
2018-12-09T11:18:04.562Z,2.00
2018-12-09T11:20:32.112Z,1.98
2018-12-09T11:22:59.637Z,1.85
2018-12-09T11:25:27.188Z,2.08
2018-12-09T11:27:54.734Z,2.08
2018-12-09T11:30:22.430Z,1.40
2018-12-09T11:32:50.081Z,3.75
2018-12-09T11:35:17.631Z,1.72
2018-12-09T11:37:45.162Z,1.12
2018-12-09T11:40:12.709Z,3.25
2018-12-09T11:42:40.234Z,2.47
2018-12-09T11:45:08.026Z,1.10
2018-12-09T11:47:35.592Z,2.45
2018-12-09T11:50:04.021Z,1.55
2018-12-09T11:52:31.597Z,2.00
2018-12-09T11:54:59.138Z,2.47
2018-12-09T11:57:26.756Z,4.10
2018-12-09T11:59:54.318Z,6.00
2018-12-09T12:02:21.887Z,5.25
2018-12-09T12:04:49.453Z,1.77
2018-12-09T12:07:16.986Z,5.30
2018-12-09T12:09:44.606Z,1.52
2018-12-09T12:12:12.171Z,1.70
2018-12-09T12:14:39.721Z,1.22
2018-12-09T12:17:07.242Z,3.15
2018-12-09T12:19:34.890Z,3.65
2018-12-09T12:22:02.467Z,3.17
2018-12-09T12:24:30.038Z,1.80
2018-12-09T12:26:57.719Z,2.55
2018-12-09T12:29:25.274Z,2.77
2018-12-09T12:31:52.867Z,2.02
2018-12-09T12:34:20.459Z,4.37
2018-12-09T12:36:48.108Z,3.10
2018-12-09T12:39:15.675Z,7.50
2018-12-09T12:41:43.248Z,4.92
2018-12-09T12:44:10.853Z,3.20
2018-12-09T12:46:38.498Z,2.00
2018-12-09T12:49:06.178Z,3.70
2018-12-09T12:51:33.853Z,2.17
2018-12-09T12:54:01.379Z,5.70
2018-12-09T12:56:28.966Z,2.55
2018-12-09T12:58:56.562Z,2.15
2018-12-09T13:01:24.142Z,3.45
2018-12-09T13:03:51.724Z,3.15
2018-12-09T13:06:19.776Z,6.62
2018-12-09T13:08:47.313Z,2.12
2018-12-09T13:11:14.869Z,4.80
2018-12-09T13:13:42.398Z,7.12
2018-12-09T13:16:09.981Z,2.98
2018-12-09T13:18:37.508Z,4.12
2018-12-09T13:21:05.125Z,1.70
2018-12-09T13:23:32.650Z,4.42
2018-12-09T13:26:00.275Z,9.73
2018-12-09T13:28:27.801Z,10.70
2018-12-09T13:30:55.854Z,7.40
2018-12-09T13:33:23.447Z,9.15
2018-12-09T13:35:51.046Z,15.98
2018-12-09T13:38:18.642Z,16.23
2018-12-09T13:40:46.214Z,8.35
2018-12-09T13:43:13.783Z,4.12
2018-12-09T13:45:41.418Z,7.62
2018-12-09T13:48:09.127Z,5.35
2018-12-09T13:50:36.722Z,7.58
2018-12-09T13:53:04.286Z,5.60
2018-12-09T13:55:31.858Z,4.70
2018-12-09T13:57:59.492Z,6.15
2018-12-09T14:00:27.048Z,11.65
2018-12-09T14:02:54.686Z,8.35
2018-12-09T14:05:22.239Z,8.18
2018-12-09T14:07:50.306Z,5.12
2018-12-09T14:10:17.890Z,7.70
2018-12-09T14:12:45.421Z,14.85
2018-12-09T14:15:12.972Z,10.70
2018-12-09T14:17:40.522Z,8.25
2018-12-09T14:20:08.372Z,12.58
2018-12-09T14:22:35.910Z,16.48
2018-12-09T14:25:03.970Z,13.50
2018-12-09T14:27:31.537Z,15.18
2018-12-09T14:29:59.100Z,14.15
2018-12-09T14:32:26.732Z,21.80
2018-12-09T14:34:54.266Z,21.55
2018-12-09T14:37:21.946Z,28.83
2018-12-09T14:39:49.558Z,18.27
2018-12-09T14:42:17.161Z,9.20
2018-12-09T14:44:44.701Z,16.45
2018-12-09T14:47:12.627Z,8.85
2018-12-09T14:49:40.397Z,10.15
2018-12-09T14:52:08.140Z,8.35
2018-12-09T14:54:35.742Z,6.95
2018-12-09T14:57:03.349Z,4.25
2018-12-09T14:59:30.885Z,7.45
2018-12-09T15:01:58.466Z,3.62
2018-12-09T15:04:26.035Z,4.67
2018-12-09T15:06:53.609Z,5.10
2018-12-09T15:09:21.221Z,2.92
2018-12-09T15:11:48.807Z,6.17
2018-12-09T15:14:17.270Z,8.40
2018-12-09T15:16:45.106Z,8.40
2018-12-09T15:19:12.675Z,9.05
2018-12-09T15:21:40.265Z,7.83
2018-12-09T15:24:07.842Z,3.15
2018-12-09T15:26:35.535Z,3.25
2018-12-09T15:29:03.091Z,4.60
2018-12-09T15:31:30.659Z,4.40
2018-12-09T15:33:58.225Z,6.15
2018-12-09T15:36:25.818Z,6.45
2018-12-09T15:38:53.377Z,4.47
2018-12-09T15:41:20.969Z,6.65
2018-12-09T15:43:48.514Z,5.33
2018-12-09T15:46:16.063Z,5.15
2018-12-09T15:48:43.666Z,9.58
2018-12-09T15:51:11.385Z,4.87
2018-12-09T15:53:38.911Z,4.72
2018-12-09T15:56:06.533Z,2.92
2018-12-09T15:58:34.332Z,3.87
2018-12-09T16:01:01.901Z,6.03
2018-12-09T16:03:29.822Z,4.37
2018-12-09T16:05:57.494Z,2.83
2018-12-09T16:08:25.065Z,5.28
2018-12-09T16:10:52.638Z,5.75
2018-12-09T16:13:20.205Z,2.35
2018-12-09T16:15:47.739Z,3.00
2018-12-09T16:18:15.322Z,7.05
2018-12-09T16:20:42.858Z,7.33
2018-12-09T16:23:10.498Z,4.40
2018-12-09T16:25:38.078Z,2.87
2018-12-09T16:28:05.642Z,1.67
2018-12-09T16:30:33.231Z,4.10
2018-12-09T16:33:00.778Z,6.45
2018-12-09T16:35:28.442Z,5.10
2018-12-09T16:37:56.030Z,3.42
2018-12-09T16:40:23.624Z,4.75
2018-12-09T16:42:51.283Z,3.08
2018-12-09T16:45:18.814Z,6.97
2018-12-09T16:47:46.425Z,2.08
2018-12-09T16:50:13.990Z,6.17
2018-12-09T16:52:41.669Z,2.55
2018-12-09T16:55:09.241Z,2.83
2018-12-09T16:57:36.818Z,3.30
2018-12-09T17:00:05.270Z,2.90
2018-12-09T17:02:32.881Z,7.95
2018-12-09T17:05:00.458Z,4.60
2018-12-09T17:07:28.015Z,11.70
2018-12-09T17:09:55.538Z,3.90
2018-12-09T17:12:23.183Z,3.65
2018-12-09T17:14:50.706Z,3.90
2018-12-09T17:17:18.249Z,6.90
2018-12-09T17:19:45.778Z,7.83
2018-12-09T17:22:13.367Z,3.20
2018-12-09T17:24:40.899Z,2.05
2018-12-09T17:27:08.502Z,3.90
2018-12-09T17:29:36.078Z,5.42
2018-12-09T17:32:03.667Z,4.03
2018-12-09T17:34:31.222Z,6.17
2018-12-09T17:36:58.827Z,2.72
2018-12-09T17:39:26.370Z,3.47
2018-12-09T17:41:53.955Z,9.40
2018-12-09T17:44:21.483Z,3.42
2018-12-09T17:46:49.025Z,2.12
2018-12-09T17:49:16.555Z,7.78
2018-12-09T17:51:44.131Z,4.78
2018-12-09T17:54:11.693Z,4.70
2018-12-09T17:56:39.217Z,5.60
2018-12-09T17:59:06.844Z,7.67
2018-12-09T18:01:34.450Z,4.62
2018-12-09T18:04:02.096Z,2.85
2018-12-09T18:06:29.627Z,8.43
2018-12-09T18:08:57.234Z,4.25
2018-12-09T18:11:24.797Z,3.95
2018-12-09T18:13:52.483Z,7.42
2018-12-09T18:16:20.005Z,3.10
2018-12-09T18:18:47.555Z,3.17
2018-12-09T18:21:15.082Z,1.72
2018-12-09T18:23:42.635Z,7.03
2018-12-09T18:26:10.312Z,2.40
2018-12-09T18:28:38.138Z,4.12
2018-12-09T18:31:05.794Z,8.68
2018-12-09T18:33:33.472Z,7.85
2018-12-09T18:36:01.038Z,3.52
2018-12-09T18:38:28.714Z,3.47
2018-12-09T18:40:56.377Z,4.17
2018-12-09T18:43:23.965Z,4.80
2018-12-09T18:45:51.490Z,3.42
2018-12-09T18:48:19.118Z,2.87
2018-12-09T18:50:46.638Z,8.15
2018-12-09T18:53:14.259Z,2.95
2018-12-09T18:55:41.925Z,2.17
2018-12-09T18:58:09.473Z,6.50
2018-12-09T19:00:36.993Z,5.33
2018-12-09T19:03:04.648Z,3.92
2018-12-09T19:05:32.265Z,6.75
2018-12-09T19:07:59.899Z,4.42
2018-12-09T19:10:27.566Z,4.22
2018-12-09T19:12:55.241Z,6.40
2018-12-09T19:15:22.770Z,6.10
2018-12-09T19:17:50.314Z,4.03
2018-12-09T19:20:17.925Z,4.58
2018-12-09T19:22:45.474Z,5.25
2018-12-09T19:25:13.003Z,4.90
2018-12-09T19:27:40.575Z,4.85
2018-12-09T19:30:08.186Z,4.90
2018-12-09T19:32:35.730Z,3.50
2018-12-09T19:35:03.351Z,7.95
2018-12-09T19:37:30.937Z,5.33
2018-12-09T19:39:58.462Z,4.42
2018-12-09T19:42:25.990Z,4.97
2018-12-09T19:44:53.532Z,4.97
2018-12-09T19:47:21.059Z,6.80
2018-12-09T19:49:48.624Z,10.03
2018-12-09T19:52:16.227Z,7.53
2018-12-09T19:54:43.786Z,6.42
2018-12-09T19:57:11.321Z,5.53
2018-12-09T19:59:38.866Z,7.30
2018-12-09T20:02:06.473Z,3.75
2018-12-09T20:04:34.063Z,7.00
2018-12-09T20:07:01.629Z,9.40
2018-12-09T20:09:29.205Z,10.05
2018-12-09T20:11:56.776Z,8.30
2018-12-09T20:14:24.326Z,5.50
2018-12-09T20:16:51.859Z,5.42
2018-12-09T20:19:19.456Z,6.00
2018-12-09T20:21:46.977Z,9.38
2018-12-09T20:24:14.638Z,10.00
2018-12-09T20:26:42.206Z,11.65
2018-12-09T20:29:09.882Z,17.73
2018-12-09T20:31:37.493Z,6.45
2018-12-09T20:34:05.034Z,9.88
2018-12-09T20:36:32.558Z,13.95
2018-12-09T20:39:00.111Z,11.45
2018-12-09T20:41:27.649Z,10.55
2018-12-09T20:43:55.200Z,10.78
2018-12-09T20:46:22.787Z,14.68
2018-12-09T20:48:50.478Z,9.23
2018-12-09T20:51:18.133Z,6.92
2018-12-09T20:53:45.706Z,3.85
2018-12-09T20:56:13.277Z,5.37
2018-12-09T20:58:40.855Z,7.75
2018-12-09T21:01:08.422Z,9.73
2018-12-09T21:03:35.998Z,23.73
2018-12-09T21:06:03.948Z,6.53
2018-12-09T21:08:31.654Z,10.25
2018-12-09T21:10:59.227Z,5.47
2018-12-09T21:13:26.794Z,16.12
2018-12-09T21:15:54.362Z,6.50
2018-12-09T21:18:23.134Z,17.25
2018-12-09T21:20:50.826Z,10.53
2018-12-09T21:23:18.429Z,13.72
2018-12-09T21:25:46.058Z,12.05
2018-12-09T21:28:13.582Z,8.13
2018-12-09T21:30:41.174Z,9.15
2018-12-09T21:33:08.698Z,12.63
2018-12-09T21:35:36.248Z,8.78
2018-12-09T21:38:03.827Z,21.42
2018-12-09T21:40:31.522Z,13.13
2018-12-09T21:42:59.059Z,19.75
2018-12-09T21:45:26.615Z,13.78
2018-12-09T21:47:54.250Z,15.40
2018-12-09T21:50:21.814Z,14.90
2018-12-09T21:52:49.396Z,11.35
2018-12-09T21:55:16.987Z,9.88
2018-12-09T21:57:44.510Z,9.23
2018-12-09T22:00:12.102Z,10.18
2018-12-09T22:02:39.635Z,14.47
2018-12-09T22:05:07.447Z,14.40
2018-12-09T22:07:34.981Z,11.53
2018-12-09T22:10:02.610Z,9.10
2018-12-09T22:12:30.186Z,12.55
2018-12-09T22:14:57.778Z,14.58
2018-12-09T22:17:25.310Z,13.58
2018-12-09T22:19:52.893Z,10.82
2018-12-09T22:22:20.418Z,11.80
2018-12-09T22:24:48.100Z,9.58
2018-12-09T22:27:15.633Z,6.97
2018-12-09T22:29:43.226Z,13.58
2018-12-09T22:32:10.845Z,16.35
2018-12-09T22:34:38.389Z,5.60
2018-12-09T22:37:06.015Z,15.43
2018-12-09T22:39:33.567Z,18.55
2018-12-09T22:42:01.098Z,8.43
2018-12-09T22:44:28.642Z,7.30
2018-12-09T22:46:56.166Z,11.57
2018-12-09T22:49:23.856Z,8.38
2018-12-09T22:51:51.386Z,16.30
2018-12-09T22:54:19.026Z,12.05
2018-12-09T22:56:46.569Z,10.55
2018-12-09T22:59:14.109Z,8.83
2018-12-09T23:01:43.659Z,9.88
2018-12-09T23:04:11.235Z,7.40
2018-12-09T23:06:38.806Z,4.90
2018-12-09T23:09:06.743Z,6.05
2018-12-09T23:11:34.282Z,14.55
2018-12-09T23:14:01.825Z,11.15
2018-12-09T23:16:29.398Z,7.62
2018-12-09T23:18:56.974Z,4.40
2018-12-09T23:21:24.542Z,5.00
2018-12-09T23:23:52.124Z,5.90
2018-12-09T23:26:19.864Z,15.48
2018-12-09T23:28:47.434Z,13.25
2018-12-09T23:31:15.017Z,10.35
2018-12-09T23:33:42.546Z,9.93
2018-12-09T23:36:10.096Z,6.97
2018-12-09T23:38:37.622Z,8.43
2018-12-09T23:41:05.217Z,10.48
2018-12-09T23:43:32.742Z,10.75
2018-12-09T23:46:00.286Z,9.05
2018-12-09T23:48:27.819Z,10.78
2018-12-09T23:50:55.362Z,7.70
2018-12-09T23:53:22.983Z,14.03
2018-12-09T23:55:50.527Z,18.25
2018-12-09T23:58:18.058Z,11.15
